Watova, Oklahoma
Current Conditions -  °F | °C
As of 3:53 PM on Tuesday 25 Nov 2014 (Local Time) from KBVO Reporting Station
Clear Clear  
Wind Chill: 50°   Ceiling: Unl
Heat Index: 50°   Visibility: 10mi
Dew Point: 20°   Wind: 7mph
Humidity: 31%   Direction: 200°SSW
Pressure: 30.15"   Gusts: NA
Location:  36.6745°N, 95.6917°W
Report Text: KBVO 252153Z 20006KT 10SM CLR 10/M07 A3015 RMK AO2 SLP211 T01001067
Loading
Personal Weather Stations






























Interactive Weather Map New forecast layout! Learn more

10-Day Weather Forecast

Advertisements
Track Severe Weather on mobile